Relevés horaires Beauvechain (Belgique)


Relevés horaires à Beauvechain - Mercredi 03 Juin 2020
Heure UTC1 Température [°C] Vent [km/h] Hum. [%] Pres.4 [hPa] Visi. [Km] Nébu. [octa] Préc.5 [mm] Cond.
2m. Res. Ros. Dir.2 Vit. Moy. Raf.3
23:00 13.5 13.5 11.5 NO 5.6 -- 11.1 88 1001.5(-1.0/3h) 16 -- -- --
22:00 14.3 14.3 10.6 NO 5.6 -- 9.3 78 1002.1(-0.3/3h) 20 -- -- --
21:00 14.8 14.8 9.9 NO 3.7 -- 11.1 72 1002.3(-0.1/3h) 20 -- -- --
20:00 16.2 16.2 9.1 NO 5.6 -- 11.1 63 1002.3(-0.2/3h) 20 -- -- --
19:00 18.2 18.2 9.4 NNO 5.6 -- 11.1 56 1002.2(-0.5/3h) 20 -- -- --
18:00 19.5 19.5 8.8 NNO 5.6 -- 13.0 50 1002.3(-0.7/3h) 20 -- -- --
17:00 20.3 20.3 9.4 NNO 7.4 -- 13.0 50 1002.5(-1.3/3h) 20 -- -- --
16:00 21.8 21.8 8.3 NO 7.4 -- 11.1 42 1002.7(-1.6/3h) 20 -- -- --
15:00 23.0 23.0 7.7 NO 7.4 -- 11.1 37 1003(-2.0/3h) 20 7/8 -- --
14:00 22.3 22.3 4.3 O 5.6 -- 9.3 31 1003.7(-1.9/3h) 20 7/8 -- --
13:00 22.0 22.0 7.1 NO 5.6 -- 11.1 38 1004.3(-2.0/3h) 20 7/8 -- --
12:00 22.0 22.0 7.6 O 5.6 -- 16.7 39 1005.1(-1.9/3h) 20 5/8 -- --
11:00 19.6 19.6 10.2 OSO 5.6 -- 9.3 55 1007.2(-0.9/3h) 20 3/8 -- --
10:00 19.6 19.6 10.2 OSO 5.6 -- 9.3 55 1007.2(-0.9/3h) 20 3/8 -- --
09:00 19.6 19.6 10.2 OSO 5.6 -- 9.3 55 1007.2(-0.9/3h) 20 3/8 -- --
08:00 16.0 16.0 9.9 O 3.7 -- 7.4 67 1008(-0.6/3h) 20 4/8 -- --
07:00 16.0 16.0 9.9 O 3.7 -- 7.4 67 1008(-0.6/3h) 20 4/8 -- --
06:00 13.1 13.1 10.1 OSO 3.7 -- 7.4 82 1008.5(-0.8/3h) 15 5/8 -- --
05:00 13.0 13.0 9.8 O 3.7 -- 5.6 81 1008.7(-1.3/3h) 15 5/8 -- --
04:00 12.5 12.5 8.9 NNO 1.9 -- 3.7 79 1008.8(-1.9/3h) 17 -- -- --
03:00 12.8 12.8 8.5 NNO 1.9 -- 5.6 75 1009.3(-2.0/3h) 20 -- -- --
02:00 13.4 13.4 9.0 ONO 3.7 -- 5.6 75 1010.1(-2.0/3h) 20 -- -- --
01:00 14.3 14.3 9.3 NNO 1.9 -- 3.7 72 1010.7(-1.7/3h) 20 -- -- --
00:00 15.1 15.1 9.7 NNO 1.9 -- 14.8 70 1011.3(-1.6/3h) 20 -- -- --

1 Coordinated Universal Time. Actuellement il est 12:00 locale et 10:00 UTC.

2 Le vent souffle depuis la direction indiquée vers la direction oposée.

3 Les rafales max. sont disponible 40 min après l'heure du relevé.

4 Pour les stations d'altitude (plus de 600m) le géopotentiel du niveau le plus proche de la pression obligatoire est indiqué.

5 Les stations disposant d'un diffuseur peuvent indiquer "trace". Cela signifie que des précipitations ont touchés le sol mais que la quantité est inférieure à 0.1 mm.

Récapitulatif de la journée
Température [°C] Vent [km/h] Ensoleillement4 [h] Precipitations totale5 [mm] Pression [Hpa]
Min1 Max.2 Moy.3 Max. Min Max.
12.1 23.6 0 16.7 0 h 0 min 0 1001.5 1011.3

1 Température minimale relevée entre 18:00 UTC la veille et 18:00 UTC le jour donné.

2 Température maximale relevée entre 06:00 UTC le jour donné et 06:00 UTC le lendemain.

3 Vent moyen de la journée basé sur les relevés horaires.

4 Ensoleillement en heures relevé entre 06:00 UTC la veille et 06:00 UTC le jour donné.

5 Précipitations totales tombées entre 06:00 UTC la jour donné et 06:00 UTC le lendemain.

Graphiques horaires